Terminal Aerodrome Forecast
Issued by NWS Springfield, MO

Home | Current Version | Previous Version | Text Only | Print | Product List | Glossary On
Versions: 1 2 3 4 5 6 7 8 9 10 11 12 13 14
000
FTUS43 KSGF 282320
TAFSGF
TAF
KSGF 282320Z 2900/2924 24007KT P6SM SCT200
     FM290300 24005KT P6SM FEW250
     FM291900 30005KT P6SM SCT250=

USA.gov is the U.S. government's official web portal to all federal, state and local government web resources and services.